createdAt,value
2022-09-09T00:01:27.853Z,15.00
2022-09-09T00:04:01.291Z,15.00
2022-09-09T00:06:36.392Z,15.00
2022-09-09T00:09:13.129Z,14.90
2022-09-09T00:11:54.485Z,15.00
2022-09-09T00:14:51.443Z,15.00
2022-09-09T00:17:21.979Z,15.00
2022-09-09T00:20:01.443Z,15.00
2022-09-09T00:22:32.452Z,15.00
2022-09-09T00:25:12.282Z,15.00
2022-09-09T00:27:46.731Z,15.00
2022-09-09T00:30:23.938Z,15.00
2022-09-09T00:32:58.895Z,15.00
2022-09-09T00:35:35.782Z,15.00
2022-09-09T00:38:34.650Z,14.90
2022-09-09T00:41:12.619Z,14.90
2022-09-09T00:43:42.179Z,14.80
2022-09-09T00:46:29.496Z,14.80
2022-09-09T00:49:06.394Z,14.80
2022-09-09T00:52:19.407Z,14.80
2022-09-09T00:55:05.578Z,14.80
2022-09-09T00:57:35.499Z,14.80
2022-09-09T01:00:19.680Z,14.80
2022-09-09T01:03:25.462Z,14.80
2022-09-09T01:06:13.906Z,14.80
2022-09-09T01:08:51.357Z,14.80
2022-09-09T01:11:24.073Z,14.80
2022-09-09T01:14:00.089Z,14.80
2022-09-09T01:16:32.515Z,14.70
2022-09-09T01:19:02.394Z,14.70
2022-09-09T01:21:54.729Z,14.80
2022-09-09T01:24:36.712Z,14.80
2022-09-09T01:27:19.237Z,14.80
2022-09-09T01:29:47.687Z,14.80
2022-09-09T01:32:41.378Z,14.70
2022-09-09T01:35:15.513Z,14.80
2022-09-09T01:37:43.411Z,14.80
2022-09-09T01:40:11.489Z,14.80
2022-09-09T01:42:40.529Z,14.80
2022-09-09T01:45:09.211Z,14.80
2022-09-09T01:47:37.133Z,14.80
2022-09-09T01:50:27.524Z,14.80
2022-09-09T01:52:59.282Z,14.70
2022-09-09T01:55:33.243Z,14.80
2022-09-09T01:58:41.694Z,14.80
2022-09-09T02:01:47.840Z,14.80
2022-09-09T02:04:31.463Z,14.80
2022-09-09T02:07:04.152Z,14.70
2022-09-09T02:09:32.034Z,14.70
2022-09-09T02:12:18.438Z,14.60
2022-09-09T02:14:59.804Z,14.70
2022-09-09T02:17:37.429Z,14.70
2022-09-09T02:20:15.494Z,14.70
2022-09-09T02:23:02.888Z,14.70
2022-09-09T02:25:31.223Z,14.60
2022-09-09T02:28:15.518Z,14.60
2022-09-09T02:30:47.298Z,14.50
2022-09-09T02:33:16.317Z,14.50
2022-09-09T02:35:49.581Z,14.60
2022-09-09T02:38:22.511Z,14.60
2022-09-09T02:40:59.942Z,14.60
2022-09-09T02:43:32.256Z,14.60
2022-09-09T02:46:15.971Z,14.60
2022-09-09T02:49:04.583Z,14.60
2022-09-09T02:51:44.547Z,14.60
2022-09-09T02:54:26.199Z,14.70
2022-09-09T02:56:58.053Z,14.60
2022-09-09T02:59:35.324Z,14.60
2022-09-09T03:02:03.739Z,14.60
2022-09-09T03:04:32.243Z,14.60
2022-09-09T03:07:00.433Z,14.60
2022-09-09T03:09:27.990Z,14.60
2022-09-09T03:11:56.465Z,14.60
2022-09-09T03:14:26.272Z,14.50
2022-09-09T03:16:55.088Z,14.50
2022-09-09T03:19:23.495Z,14.60
2022-09-09T03:21:53.193Z,14.50
2022-09-09T03:24:21.061Z,14.50
2022-09-09T03:26:48.649Z,14.50
2022-09-09T03:29:19.489Z,14.50
2022-09-09T03:31:47.708Z,14.50
2022-09-09T03:34:16.396Z,14.50
2022-09-09T03:36:44.058Z,14.50
2022-09-09T03:39:11.652Z,14.50
2022-09-09T03:41:41.086Z,14.50
2022-09-09T03:44:08.648Z,14.40
2022-09-09T03:46:40.207Z,14.50
2022-09-09T03:49:07.707Z,14.50
2022-09-09T03:51:37.235Z,14.50
2022-09-09T03:54:09.200Z,14.50
2022-09-09T03:56:37.812Z,14.50
2022-09-09T03:59:05.400Z,14.50
2022-09-09T04:01:33.304Z,14.50
2022-09-09T04:04:03.301Z,14.50
2022-09-09T04:06:31.110Z,14.50
2022-09-09T04:08:58.690Z,14.50
2022-09-09T04:11:27.699Z,14.50
2022-09-09T04:13:57.717Z,14.40
2022-09-09T04:16:25.403Z,14.40
2022-09-09T04:18:54.182Z,14.40
2022-09-09T04:21:22.395Z,14.40
2022-09-09T04:23:50.016Z,14.40
2022-09-09T04:26:18.908Z,14.40
2022-09-09T04:28:46.810Z,14.40
2022-09-09T04:31:22.567Z,14.40
2022-09-09T04:33:51.866Z,14.40
2022-09-09T04:36:20.731Z,14.30
2022-09-09T04:38:50.296Z,14.40
2022-09-09T04:41:18.662Z,14.40
2022-09-09T04:43:49.238Z,14.40
2022-09-09T04:46:20.340Z,14.40
2022-09-09T04:48:50.639Z,14.40
2022-09-09T04:51:19.490Z,14.30
2022-09-09T04:53:49.913Z,14.30
2022-09-09T04:56:19.423Z,14.40
2022-09-09T04:58:56.415Z,14.30
2022-09-09T05:01:29.388Z,14.30
2022-09-09T05:04:03.837Z,14.30
2022-09-09T05:06:33.282Z,14.30
2022-09-09T05:09:01.995Z,14.40
2022-09-09T05:11:33.400Z,14.30
2022-09-09T05:14:06.819Z,14.40
2022-09-09T05:16:34.575Z,14.50
2022-09-09T05:19:04.326Z,14.50
2022-09-09T05:21:43.731Z,14.50
2022-09-09T05:24:12.008Z,14.50
2022-09-09T05:26:39.524Z,14.50
2022-09-09T05:29:09.301Z,14.50
2022-09-09T05:31:37.786Z,14.50
2022-09-09T05:34:10.227Z,14.50
2022-09-09T05:36:37.824Z,14.60
2022-09-09T05:39:05.351Z,14.60
2022-09-09T05:41:34.267Z,14.50
2022-09-09T05:44:04.538Z,14.50
2022-09-09T05:46:36.719Z,14.50
2022-09-09T05:49:06.568Z,14.50
2022-09-09T05:51:35.494Z,14.60
2022-09-09T05:54:10.892Z,14.60
2022-09-09T05:56:43.202Z,14.60
2022-09-09T05:59:11.033Z,14.60
2022-09-09T06:01:41.622Z,14.70
2022-09-09T06:04:12.144Z,14.70
2022-09-09T06:06:42.493Z,14.60
2022-09-09T06:09:14.631Z,14.60
2022-09-09T06:11:44.469Z,14.60
2022-09-09T06:14:13.243Z,14.60
2022-09-09T06:16:45.196Z,14.60
2022-09-09T06:19:32.984Z,14.60
2022-09-09T06:22:01.500Z,14.60
2022-09-09T06:24:31.480Z,14.60
2022-09-09T06:27:01.371Z,14.60
2022-09-09T06:29:33.067Z,14.60
2022-09-09T06:32:02.653Z,14.70
2022-09-09T06:34:30.135Z,14.70
2022-09-09T06:36:59.625Z,14.60
2022-09-09T06:39:33.278Z,14.60
2022-09-09T06:42:01.464Z,14.60
2022-09-09T06:44:47.983Z,14.70
2022-09-09T06:47:37.397Z,14.80
2022-09-09T06:50:07.099Z,14.80
2022-09-09T06:52:35.788Z,14.80
2022-09-09T06:55:04.866Z,14.80
2022-09-09T06:57:37.418Z,14.90
2022-09-09T07:00:10.871Z,14.90
2022-09-09T07:02:40.153Z,14.90
2022-09-09T07:05:09.445Z,14.90
2022-09-09T07:07:37.780Z,15.00
2022-09-09T07:10:06.383Z,15.10
2022-09-09T07:12:34.494Z,15.10
2022-09-09T07:15:02.169Z,15.00
2022-09-09T07:17:30.294Z,15.00
2022-09-09T07:20:00.117Z,15.10
2022-09-09T07:22:29.648Z,15.10
2022-09-09T07:24:57.726Z,15.10
2022-09-09T07:27:26.798Z,15.10
2022-09-09T07:29:55.439Z,15.10
2022-09-09T07:32:23.180Z,15.10
2022-09-09T07:34:51.657Z,15.10
2022-09-09T07:37:19.280Z,15.20
2022-09-09T07:39:48.642Z,15.20
2022-09-09T07:42:18.490Z,15.20
2022-09-09T07:44:46.315Z,15.30
2022-09-09T07:47:16.553Z,15.30
2022-09-09T07:49:50.878Z,15.30
2022-09-09T07:52:23.492Z,15.40
2022-09-09T07:54:55.262Z,15.40
2022-09-09T07:57:22.806Z,15.40
2022-09-09T07:59:51.753Z,15.50
2022-09-09T08:02:19.657Z,15.50
2022-09-09T08:04:47.404Z,15.50
2022-09-09T08:07:17.523Z,15.50
2022-09-09T08:09:52.184Z,15.50
2022-09-09T08:12:24.647Z,15.60
2022-09-09T08:14:55.687Z,15.60
2022-09-09T08:17:25.335Z,15.70
2022-09-09T08:19:52.924Z,15.70
2022-09-09T08:22:25.585Z,15.70
2022-09-09T08:24:53.209Z,15.70
2022-09-09T08:27:20.744Z,15.70
2022-09-09T08:29:48.752Z,15.60
2022-09-09T08:32:17.608Z,15.60
2022-09-09T08:34:46.670Z,15.60
2022-09-09T08:37:18.856Z,15.60
2022-09-09T08:39:53.971Z,15.60
2022-09-09T08:42:56.078Z,15.70
2022-09-09T08:45:43.746Z,15.70
2022-09-09T08:48:30.792Z,15.70
2022-09-09T08:51:02.979Z,15.80
2022-09-09T08:53:43.661Z,15.70
2022-09-09T08:56:17.310Z,15.80
2022-09-09T08:58:51.374Z,15.90
2022-09-09T09:01:45.191Z,15.90
2022-09-09T09:04:54.416Z,16.00
2022-09-09T09:07:59.837Z,16.10
2022-09-09T09:10:50.434Z,16.10
2022-09-09T09:14:26.502Z,16.10
2022-09-09T09:17:02.766Z,16.10
2022-09-09T09:19:31.922Z,16.10
2022-09-09T09:22:21.696Z,16.10
2022-09-09T09:24:59.853Z,16.10
2022-09-09T09:27:33.586Z,16.10
2022-09-09T09:30:24.224Z,16.00
2022-09-09T09:33:15.883Z,16.00
2022-09-09T09:35:44.738Z,15.90
2022-09-09T09:41:14.449Z,15.90
2022-09-09T09:43:45.418Z,16.00
2022-09-09T09:46:24.642Z,16.00
2022-09-09T09:49:02.175Z,15.90
2022-09-09T09:51:33.614Z,15.80
2022-09-09T09:54:16.671Z,15.70
2022-09-09T09:56:48.912Z,15.80
2022-09-09T09:59:39.533Z,15.80
2022-09-09T10:02:16.025Z,15.90
2022-09-09T10:04:46.458Z,15.80
2022-09-09T10:07:22.057Z,15.80
2022-09-09T10:09:58.346Z,15.90
2022-09-09T10:13:04.203Z,15.90
2022-09-09T10:15:40.679Z,15.90
2022-09-09T10:18:27.280Z,15.90
2022-09-09T10:21:11.191Z,15.90
2022-09-09T10:23:56.293Z,15.90
2022-09-09T10:26:33.323Z,16.00
2022-09-09T10:29:39.084Z,16.00
2022-09-09T10:32:26.141Z,16.10
2022-09-09T10:34:58.835Z,16.10
2022-09-09T10:37:55.562Z,16.10
2022-09-09T10:40:39.915Z,16.10
2022-09-09T10:43:44.876Z,16.20
2022-09-09T10:46:35.059Z,16.40
2022-09-09T10:49:23.174Z,16.40
2022-09-09T10:52:11.970Z,16.10
2022-09-09T10:54:54.858Z,16.10
2022-09-09T10:57:44.154Z,16.10
2022-09-09T11:00:25.028Z,16.00
2022-09-09T11:02:58.003Z,16.00
2022-09-09T11:05:42.770Z,15.90
2022-09-09T11:08:20.814Z,16.00
2022-09-09T11:11:04.689Z,16.20
2022-09-09T11:13:43.810Z,16.30
2022-09-09T11:16:43.340Z,16.30
2022-09-09T11:19:35.081Z,16.50
2022-09-09T11:22:37.934Z,16.50
2022-09-09T11:25:11.458Z,16.50
2022-09-09T11:27:51.653Z,16.60
2022-09-09T11:30:57.556Z,16.60
2022-09-09T11:34:16.275Z,16.70
2022-09-09T11:37:05.996Z,16.80
2022-09-09T11:39:47.165Z,16.90
2022-09-09T11:42:18.646Z,16.90
2022-09-09T11:44:46.779Z,17.20
2022-09-09T11:47:23.937Z,17.40
2022-09-09T11:49:51.519Z,17.40
2022-09-09T11:52:36.591Z,17.40
2022-09-09T11:55:31.585Z,17.40
2022-09-09T11:58:04.835Z,17.50
2022-09-09T12:00:48.798Z,17.50
2022-09-09T12:03:43.708Z,17.60
2022-09-09T12:06:33.434Z,17.40
2022-09-09T12:09:40.833Z,17.30
2022-09-09T12:12:08.270Z,17.30
2022-09-09T12:14:44.394Z,17.30
2022-09-09T12:17:21.451Z,17.30
2022-09-09T12:19:49.889Z,17.30
2022-09-09T12:22:36.964Z,17.20
2022-09-09T12:25:20.182Z,17.20
2022-09-09T12:27:58.559Z,17.10
2022-09-09T12:30:33.114Z,16.90
2022-09-09T12:33:07.798Z,16.70
2022-09-09T12:35:39.007Z,16.60
2022-09-09T12:38:08.463Z,16.80
2022-09-09T12:40:40.131Z,16.80
2022-09-09T12:43:20.790Z,17.00
2022-09-09T12:45:53.502Z,17.00
2022-09-09T12:48:30.177Z,17.00
2022-09-09T12:50:58.606Z,16.80
2022-09-09T12:53:33.032Z,16.70
2022-09-09T12:56:02.863Z,16.70
2022-09-09T12:58:34.696Z,16.70
2022-09-09T13:01:06.067Z,16.60
2022-09-09T13:03:35.100Z,16.80
2022-09-09T13:06:15.352Z,16.70
2022-09-09T13:08:43.186Z,16.60
2022-09-09T13:11:16.580Z,16.40
2022-09-09T13:13:51.079Z,16.30
2022-09-09T13:16:36.680Z,16.30
2022-09-09T13:19:11.385Z,16.40
2022-09-09T13:21:40.478Z,16.30
2022-09-09T13:24:30.626Z,16.30
2022-09-09T13:27:04.922Z,16.40
2022-09-09T13:29:35.235Z,16.50
2022-09-09T13:32:18.532Z,16.50
2022-09-09T13:34:57.704Z,16.50
2022-09-09T13:37:36.177Z,16.50
2022-09-09T13:40:06.935Z,16.30
2022-09-09T13:42:39.773Z,16.30
2022-09-09T13:45:18.104Z,16.30
2022-09-09T13:47:46.292Z,16.20
2022-09-09T13:50:29.708Z,16.00
2022-09-09T13:53:01.943Z,16.10
2022-09-09T13:55:31.186Z,16.20
2022-09-09T13:58:01.746Z,16.20
2022-09-09T14:00:35.344Z,16.20
2022-09-09T14:03:03.229Z,16.30
2022-09-09T14:05:34.165Z,16.30
2022-09-09T14:08:02.097Z,16.40
2022-09-09T14:10:29.634Z,16.40
2022-09-09T14:12:57.126Z,16.50
2022-09-09T14:15:24.864Z,16.50
2022-09-09T14:17:53.301Z,16.50
2022-09-09T14:20:20.947Z,16.50
2022-09-09T14:22:48.711Z,16.50
2022-09-09T14:25:16.254Z,16.40
2022-09-09T14:27:44.238Z,16.40
2022-09-09T14:30:12.267Z,16.50
2022-09-09T14:32:39.747Z,16.40
2022-09-09T14:35:08.392Z,16.30
2022-09-09T14:37:35.973Z,16.30
2022-09-09T14:40:03.713Z,16.40
2022-09-09T14:42:31.329Z,16.40
2022-09-09T14:44:58.768Z,16.40
2022-09-09T14:47:27.222Z,16.50
2022-09-09T14:49:54.722Z,16.40
2022-09-09T14:52:22.382Z,16.30
2022-09-09T14:54:50.627Z,16.30
2022-09-09T14:57:18.170Z,16.20
2022-09-09T14:59:45.876Z,16.30
2022-09-09T15:02:15.070Z,16.20
2022-09-09T15:04:42.614Z,16.20
2022-09-09T15:07:10.252Z,16.10
2022-09-09T15:09:38.361Z,16.10
2022-09-09T15:12:05.851Z,16.10
2022-09-09T15:14:33.887Z,16.20
2022-09-09T15:17:02.072Z,16.20
2022-09-09T15:19:29.590Z,16.20
2022-09-09T15:21:57.105Z,16.10
2022-09-09T15:24:24.751Z,16.10
2022-09-09T15:26:52.164Z,16.10
2022-09-09T15:29:19.995Z,16.20
2022-09-09T15:31:47.804Z,16.10
2022-09-09T15:34:15.620Z,16.10
2022-09-09T15:36:45.224Z,16.10
2022-09-09T15:39:16.755Z,16.10
2022-09-09T15:41:46.038Z,16.10
2022-09-09T15:44:13.926Z,16.00
2022-09-09T15:46:50.890Z,15.90
2022-09-09T15:49:22.982Z,16.00
2022-09-09T15:51:56.451Z,16.00
2022-09-09T15:54:25.270Z,16.00
2022-09-09T15:56:58.861Z,16.00
2022-09-09T15:59:28.887Z,16.00
2022-09-09T16:01:57.384Z,15.80
2022-09-09T16:04:25.652Z,15.80
2022-09-09T16:07:19.181Z,15.90
2022-09-09T16:09:46.637Z,15.80
2022-09-09T16:12:15.535Z,15.80
2022-09-09T16:14:43.109Z,15.90
2022-09-09T16:17:11.282Z,15.90
2022-09-09T16:19:38.823Z,15.90
2022-09-09T16:22:10.262Z,15.90
2022-09-09T16:24:38.159Z,15.80
2022-09-09T16:27:06.008Z,15.80
2022-09-09T16:29:33.557Z,15.90
2022-09-09T16:32:04.000Z,15.90
2022-09-09T16:34:34.479Z,15.90
2022-09-09T16:37:03.117Z,15.80
2022-09-09T16:39:30.693Z,15.80
2022-09-09T16:41:58.283Z,15.90
2022-09-09T16:44:27.196Z,15.90
2022-09-09T16:47:00.498Z,15.80
2022-09-09T16:49:29.506Z,15.80
2022-09-09T16:51:59.729Z,15.90
2022-09-09T16:54:28.108Z,15.90
2022-09-09T16:56:56.067Z,16.00
2022-09-09T16:59:24.473Z,15.90
2022-09-09T17:01:53.416Z,15.80
2022-09-09T17:04:25.194Z,15.70
2022-09-09T17:06:56.833Z,15.70
2022-09-09T17:09:29.719Z,15.70
2022-09-09T17:11:57.331Z,15.70
2022-09-09T17:14:24.962Z,15.70
2022-09-09T17:16:52.711Z,15.70
2022-09-09T17:19:20.355Z,15.60
2022-09-09T17:22:14.882Z,15.60
2022-09-09T17:24:39.619Z,15.60
2022-09-09T17:27:07.518Z,15.60
2022-09-09T17:29:36.946Z,15.60
2022-09-09T17:32:06.464Z,15.50
2022-09-09T17:34:35.134Z,15.50
2022-09-09T17:37:02.653Z,15.50
2022-09-09T17:39:30.157Z,15.40
2022-09-09T17:41:57.911Z,15.40
2022-09-09T17:44:27.347Z,15.30
2022-09-09T17:46:56.473Z,15.20
2022-09-09T17:49:23.978Z,15.20
2022-09-09T17:51:51.655Z,15.20
2022-09-09T17:54:21.949Z,15.20
2022-09-09T17:56:49.856Z,15.20
2022-09-09T17:59:18.726Z,15.30
2022-09-09T18:01:49.622Z,15.30
2022-09-09T18:04:17.868Z,15.30
2022-09-09T18:06:48.798Z,15.30
2022-09-09T18:09:23.448Z,15.30
2022-09-09T18:11:54.697Z,15.30
2022-09-09T18:14:30.233Z,15.30
2022-09-09T18:16:59.577Z,15.30
2022-09-09T18:19:30.790Z,15.20
2022-09-09T18:22:01.879Z,15.30
2022-09-09T18:24:31.089Z,15.20
2022-09-09T18:26:59.120Z,15.30
2022-09-09T18:29:26.802Z,15.20
2022-09-09T18:31:55.486Z,15.20
2022-09-09T18:34:28.418Z,15.20
2022-09-09T18:36:56.964Z,15.20
2022-09-09T18:39:27.695Z,15.20
2022-09-09T18:41:59.571Z,15.20
2022-09-09T18:44:32.475Z,15.20
2022-09-09T18:47:00.323Z,15.10
2022-09-09T18:49:28.265Z,15.10
2022-09-09T18:51:56.545Z,15.10
2022-09-09T18:54:26.890Z,15.10
2022-09-09T18:56:55.380Z,15.10
2022-09-09T18:59:24.001Z,15.20
2022-09-09T19:01:53.157Z,15.10
2022-09-09T19:04:23.233Z,15.10
2022-09-09T19:06:57.993Z,15.10
2022-09-09T19:09:31.876Z,15.10
2022-09-09T19:12:01.254Z,15.10
2022-09-09T19:14:29.086Z,15.10
2022-09-09T19:16:56.625Z,15.00
2022-09-09T19:19:26.844Z,15.00
2022-09-09T19:21:57.491Z,15.00
2022-09-09T19:24:31.378Z,15.00
2022-09-09T19:27:02.146Z,15.00
2022-09-09T19:29:32.640Z,15.00
2022-09-09T19:32:36.803Z,14.90
2022-09-09T19:34:51.045Z,14.90
2022-09-09T19:37:19.403Z,14.90
2022-09-09T19:39:48.237Z,15.00
2022-09-09T19:42:16.164Z,14.90
2022-09-09T19:44:43.716Z,14.90
2022-09-09T19:47:11.354Z,14.80
2022-09-09T19:49:38.895Z,14.90
2022-09-09T19:52:06.653Z,14.90
2022-09-09T19:54:34.130Z,14.80
2022-09-09T19:57:01.842Z,14.80
2022-09-09T19:59:30.281Z,14.80
2022-09-09T20:01:58.458Z,14.80
2022-09-09T20:04:26.451Z,14.80
2022-09-09T20:06:54.272Z,14.80
2022-09-09T20:09:22.580Z,14.80
2022-09-09T20:11:50.233Z,14.80
2022-09-09T20:14:18.447Z,14.70
2022-09-09T20:16:46.526Z,14.70
2022-09-09T20:19:18.571Z,14.70
2022-09-09T20:21:50.420Z,14.70
2022-09-09T20:24:19.947Z,14.70
2022-09-09T20:26:48.994Z,14.60
2022-09-09T20:29:18.827Z,14.60
2022-09-09T20:31:47.214Z,14.60
2022-09-09T20:34:18.623Z,14.60
2022-09-09T20:36:47.265Z,14.50
2022-09-09T20:39:16.932Z,14.50
2022-09-09T20:41:46.392Z,14.50
2022-09-09T20:44:19.280Z,14.40
2022-09-09T20:46:50.002Z,14.40
2022-09-09T20:49:19.678Z,14.50
2022-09-09T20:51:49.771Z,14.40
2022-09-09T20:54:20.790Z,14.40
2022-09-09T20:56:48.607Z,14.40
2022-09-09T20:59:21.786Z,14.40
2022-09-09T21:01:50.140Z,14.30
2022-09-09T21:04:19.773Z,14.40
2022-09-09T21:06:49.979Z,14.30
2022-09-09T21:09:18.004Z,14.30
2022-09-09T21:11:47.172Z,14.40
2022-09-09T21:14:15.090Z,14.30
2022-09-09T21:16:42.712Z,14.30
2022-09-09T21:19:10.285Z,14.20
2022-09-09T21:21:37.776Z,14.20
2022-09-09T21:24:05.930Z,14.20
2022-09-09T21:26:33.639Z,14.20
2022-09-09T21:29:01.207Z,14.20
2022-09-09T21:31:28.821Z,14.10
2022-09-09T21:33:59.592Z,14.10
2022-09-09T21:36:28.631Z,14.10
2022-09-09T21:38:59.193Z,14.00
2022-09-09T21:41:26.845Z,13.90
2022-09-09T21:43:54.931Z,13.90
2022-09-09T21:46:23.585Z,13.80
2022-09-09T21:48:51.260Z,13.80
2022-09-09T21:51:19.102Z,13.80
2022-09-09T21:53:46.625Z,13.70
2022-09-09T21:56:16.825Z,13.60
2022-09-09T21:58:45.012Z,13.60
2022-09-09T22:01:18.268Z,13.50
2022-09-09T22:03:46.233Z,13.40
2022-09-09T22:06:16.056Z,13.40
2022-09-09T22:08:44.400Z,13.30
2022-09-09T22:11:17.450Z,13.30
2022-09-09T22:13:48.979Z,13.30
2022-09-09T22:16:20.619Z,13.30
2022-09-09T22:18:59.318Z,13.30
2022-09-09T22:21:28.686Z,13.20
2022-09-09T22:24:04.308Z,13.20
2022-09-09T22:26:34.602Z,13.10
2022-09-09T22:29:04.011Z,13.10
2022-09-09T22:31:32.816Z,13.10
2022-09-09T22:34:00.351Z,13.10
2022-09-09T22:36:27.875Z,13.10
2022-09-09T22:38:56.902Z,13.10
2022-09-09T22:41:25.180Z,13.10
2022-09-09T22:43:52.705Z,13.20
2022-09-09T22:46:20.202Z,13.10
2022-09-09T22:48:48.543Z,13.10
2022-09-09T22:51:17.233Z,13.00
2022-09-09T22:53:46.773Z,12.90
2022-09-09T22:56:20.111Z,12.90
2022-09-09T22:58:48.197Z,12.90
2022-09-09T23:01:19.188Z,12.80
2022-09-09T23:03:47.790Z,12.70
2022-09-09T23:06:26.864Z,12.70
2022-09-09T23:09:03.575Z,12.80
2022-09-09T23:11:34.137Z,12.70
2022-09-09T23:14:03.435Z,12.70
2022-09-09T23:16:38.423Z,12.80
2022-09-09T23:19:10.085Z,12.80
2022-09-09T23:21:39.540Z,12.80
2022-09-09T23:24:08.633Z,12.70
2022-09-09T23:26:36.212Z,12.70
2022-09-09T23:29:03.661Z,12.70
2022-09-09T23:31:33.795Z,12.60
2022-09-09T23:34:02.170Z,12.50
2022-09-09T23:36:30.990Z,12.60
2022-09-09T23:39:01.779Z,12.40
2022-09-09T23:41:30.690Z,12.40
2022-09-09T23:43:58.266Z,12.30
2022-09-09T23:46:28.485Z,12.30
2022-09-09T23:48:57.903Z,12.30
2022-09-09T23:51:28.930Z,12.30
2022-09-09T23:53:58.735Z,12.40
2022-09-09T23:56:33.443Z,12.40
2022-09-09T23:59:01.005Z,12.40
